Time;durP1;ratioP1;P1;durP2;ratioP2;P2;SDS_P1;SDS_P2;PMS_P1;PMS_P2;Temp;Humidity;BMP_temperature;BMP_pressure;BME280_temperature;BME280_humidity;BME280_pressure;Samples;Min_cycle;Max_cycle;Signal;HPM_P1;HPM_P2
2023/02/18 00:02:07;;;;;;;2.95;2.65;;;18.10;55.90;;;;;;5114390;28;20169;-48
2023/02/18 00:04:32;;;;;;;3.30;2.63;;;18.10;55.90;;;;;;5113655;28;20379;-50
2023/02/18 00:06:58;;;;;;;3.55;2.58;;;18.10;55.90;;;;;;5113452;28;20600;-54
2023/02/18 00:09:24;;;;;;;3.95;3.10;;;18.10;55.90;;;;;;5113892;28;20719;-52
2023/02/18 00:11:49;;;;;;;2.67;2.38;;;18.10;55.90;;;;;;5113619;28;20176;-52
2023/02/18 00:14:15;;;;;;;4.93;2.70;;;18.00;55.90;;;;;;5113302;28;20208;-53
2023/02/18 00:16:41;;;;;;;6.32;2.97;;;18.00;55.90;;;;;;5113348;28;20225;-53
2023/02/18 00:19:10;;;;;;;4.35;2.80;;;18.00;55.90;;;;;;5113854;28;20226;-49
2023/02/18 00:21:35;;;;;;;3.92;2.78;;;18.00;55.90;;;;;;5112750;28;20169;-53
2023/02/18 00:24:01;;;;;;;4.47;3.03;;;18.00;55.90;;;;;;5113586;28;20254;-50
2023/02/18 00:26:27;;;;;;;5.65;2.90;;;18.00;55.90;;;;;;5111514;28;20173;-50
2023/02/18 00:28:53;;;;;;;3.80;3.10;;;18.00;55.90;;;;;;5112885;28;20650;-52
2023/02/18 00:31:21;;;;;;;4.38;3.58;;;18.00;55.90;;;;;;5113514;28;20535;-51
2023/02/18 00:33:47;;;;;;;5.60;2.95;;;17.90;55.80;;;;;;5113301;28;20177;-52
2023/02/18 00:36:14;;;;;;;4.30;3.10;;;17.90;55.80;;;;;;5112929;28;20168;-54
2023/02/18 00:38:47;;;;;;;4.50;3.00;;;18.00;55.90;;;;;;5113034;28;20184;-53
2023/02/18 00:41:13;;;;;;;5.93;3.55;;;18.00;56.00;;;;;;5113595;28;20282;-53
2023/02/18 00:43:38;;;;;;;4.57;3.40;;;18.00;55.90;;;;;;5112458;28;20209;-54
2023/02/18 00:46:05;;;;;;;5.78;3.53;;;18.00;55.90;;;;;;5113302;28;20627;-52
2023/02/18 00:48:30;;;;;;;4.63;3.42;;;18.00;55.90;;;;;;5113518;28;20196;-50
2023/02/18 00:50:56;;;;;;;3.88;3.13;;;17.90;55.80;;;;;;5112206;28;20179;-49
2023/02/18 00:53:22;;;;;;;8.85;3.78;;;17.90;55.90;;;;;;5113155;28;20180;-52
2023/02/18 00:55:47;;;;;;;5.72;3.15;;;17.90;55.90;;;;;;5113157;28;20165;-53
2023/02/18 00:58:13;;;;;;;5.90;4.05;;;17.90;55.80;;;;;;5112407;28;20192;-54
2023/02/18 01:00:39;;;;;;;4.10;3.13;;;17.90;55.80;;;;;;5112549;28;20631;-52
2023/02/18 01:03:06;;;;;;;5.18;3.45;;;17.90;55.90;;;;;;5112303;28;20269;-54
2023/02/18 01:05:32;;;;;;;5.50;3.42;;;17.90;55.80;;;;;;5112421;28;20233;-52
2023/02/18 01:07:57;;;;;;;5.15;4.10;;;17.80;55.80;;;;;;5112738;28;20536;-53
2023/02/18 01:10:23;;;;;;;5.40;3.63;;;17.80;56.50;;;;;;5112076;28;20181;-54
2023/02/18 01:12:48;;;;;;;5.90;3.58;;;17.80;55.80;;;;;;5113014;28;20226;-51
2023/02/18 01:15:14;;;;;;;4.25;3.40;;;17.90;55.90;;;;;;5112987;28;20181;-52
2023/02/18 01:17:40;;;;;;;6.20;4.00;;;17.80;55.80;;;;;;5111666;28;20326;-53
2023/02/18 01:20:06;;;;;;;5.43;3.53;;;17.90;55.90;;;;;;5112609;28;20210;-54
2023/02/18 01:22:31;;;;;;;5.63;3.53;;;17.80;55.90;;;;;;5112127;28;20181;-52
2023/02/18 01:24:57;;;;;;;5.35;3.60;;;17.80;55.80;;;;;;5112019;28;20513;-51
2023/02/18 01:27:22;;;;;;;6.63;3.75;;;17.90;55.90;;;;;;5112792;28;20710;-53
2023/02/18 01:29:48;;;;;;;4.95;3.33;;;17.80;55.80;;;;;;5112258;28;20184;-54
2023/02/18 01:32:14;;;;;;;5.70;3.90;;;17.80;55.90;;;;;;5111878;28;20177;-53
2023/02/18 01:34:39;;;;;;;6.32;3.75;;;17.80;55.80;;;;;;5112242;28;20313;-52
2023/02/18 01:37:05;;;;;;;5.43;3.95;;;17.80;55.90;;;;;;5111756;28;20269;-53
2023/02/18 01:39:30;;;;;;;4.93;4.03;;;17.80;55.90;;;;;;5111983;28;20242;-51
2023/02/18 01:41:56;;;;;;;4.95;3.42;;;17.80;55.90;;;;;;5112360;28;20177;-54
2023/02/18 01:44:24;;;;;;;4.80;3.53;;;17.80;55.90;;;;;;5112427;28;20211;-52
2023/02/18 01:46:50;;;;;;;4.68;3.33;;;17.80;55.90;;;;;;5111449;28;20396;-51
2023/02/18 01:49:35;;;;;;;3.75;3.40;;;17.80;55.90;;;;;;5112348;28;20280;-54
2023/02/18 01:52:08;;;;;;;5.43;3.60;;;17.70;55.80;;;;;;5111448;28;20187;-53
2023/02/18 01:54:42;;;;;;;5.22;3.67;;;17.70;55.80;;;;;;5112272;28;20519;-50
2023/02/18 01:57:13;;;;;;;6.68;4.25;;;17.80;55.90;;;;;;5111059;28;20188;-51
2023/02/18 01:59:42;;;;;;;5.40;3.67;;;17.70;55.70;;;;;;5109915;28;20619;-53
2023/02/18 02:02:11;;;;;;;4.30;3.67;;;17.70;55.80;;;;;;5111136;28;20191;-53
2023/02/18 02:04:36;;;;;;;5.82;3.60;;;17.70;55.80;;;;;;5110718;28;20220;-50
2023/02/18 02:07:02;;;;;;;5.82;3.92;;;17.70;55.80;;;;;;5111639;28;20166;-55
2023/02/18 02:09:28;;;;;;;6.30;3.45;;;17.70;55.80;;;;;;5093967;28;20177;-52
2023/02/18 02:12:05;;;;;;;4.80;3.70;;;17.70;55.70;;;;;;5093860;28;20180;-50
2023/02/18 02:15:10;;;;;;;5.22;3.60;;;17.70;55.80;;;;;;5111377;28;20647;-49
2023/02/18 02:17:55;;;;;;;5.85;3.88;;;17.70;55.80;;;;;;5110487;28;20273;-49
2023/02/18 02:20:52;;;;;;;5.18;3.70;;;17.70;55.80;;;;;;5110178;28;20212;-52
2023/02/18 02:23:26;;;;;;;4.97;3.70;;;17.70;55.80;;;;;;5112251;28;20212;-51
2023/02/18 02:26:06;;;;;;;5.82;4.18;;;17.70;55.80;;;;;;5111869;28;20260;-53
2023/02/18 02:28:49;;;;;;;6.80;4.10;;;17.70;55.80;;;;;;5109921;28;20185;-50
2023/02/18 02:31:23;;;;;;;7.13;4.22;;;17.70;55.80;;;;;;5111944;28;20192;-49
2023/02/18 02:34:13;;;;;;;5.78;3.85;;;17.60;55.80;;;;;;5110403;28;20595;-49
2023/02/18 02:36:44;;;;;;;5.45;3.78;;;17.60;55.70;;;;;;5109843;28;20206;-49
2023/02/18 02:39:29;;;;;;;4.95;3.90;;;17.60;55.80;;;;;;5111938;28;20260;-52
2023/02/18 02:41:59;;;;;;;4.88;4.03;;;17.60;55.70;;;;;;5111154;28;20230;-50
2023/02/18 02:45:01;;;;;;;4.57;3.65;;;17.70;55.80;;;;;;5110560;28;20212;-54
2023/02/18 02:47:32;;;;;;;6.28;4.30;;;17.60;56.10;;;;;;5110648;28;20183;-51
2023/02/18 02:50:02;;;;;;;4.90;4.05;;;17.60;55.70;;;;;;5096424;28;20169;-50
2023/02/18 02:52:31;;;;;;;5.20;4.38;;;17.60;55.70;;;;;;5114471;28;20341;-49
2023/02/18 02:54:56;;;;;;;5.80;4.38;;;17.60;55.70;;;;;;5097478;28;20251;-50
2023/02/18 02:57:22;;;;;;;4.80;3.50;;;17.60;55.80;;;;;;5113367;28;20256;-50
2023/02/18 02:59:50;;;;;;;6.90;4.10;;;17.60;55.70;;;;;;5115090;28;20169;-51
2023/02/18 03:02:55;;;;;;;6.05;3.92;;;17.60;55.80;;;;;;5114009;28;20209;-50
2023/02/18 03:05:26;;;;;;;4.65;3.75;;;17.60;55.70;;;;;;5115425;28;20188;-53
2023/02/18 03:08:36;;;;;;;5.60;4.32;;;17.60;55.70;;;;;;5114905;28;20253;-51
2023/02/18 03:11:09;;;;;;;5.95;4.15;;;17.60;55.70;;;;;;5114329;28;20539;-50
2023/02/18 03:13:43;;;;;;;6.63;4.28;;;17.60;55.80;;;;;;5113607;28;20222;-52
2023/02/18 03:16:16;;;;;;;5.68;4.35;;;17.60;55.80;;;;;;5114833;28;20173;-49
2023/02/18 03:19:11;;;;;;;5.03;4.53;;;17.50;55.70;;;;;;5112919;28;20176;-52
2023/02/18 03:21:48;;;;;;;6.47;4.55;;;17.50;55.70;;;;;;5113823;28;20275;-49
2023/02/18 03:24:16;;;;;;;6.50;4.88;;;17.50;55.80;;;;;;5113250;28;20212;-54
2023/02/18 03:26:46;;;;;;;5.15;4.65;;;17.50;55.80;;;;;;5113225;28;20588;-52
2023/02/18 03:29:11;;;;;;;6.68;4.75;;;17.50;55.80;;;;;;5113395;28;20173;-50
2023/02/18 03:31:37;;;;;;;6.70;4.95;;;17.50;55.80;;;;;;5095525;28;20200;-52
2023/02/18 03:34:17;;;;;;;6.18;4.97;;;17.50;55.80;;;;;;5096675;28;20192;-54
2023/02/18 03:36:42;;;;;;;6.80;5.40;;;17.50;55.80;;;;;;5113192;28;20512;-50
2023/02/18 03:39:14;;;;;;;5.93;4.68;;;17.50;55.80;;;;;;5112804;28;20168;-51
2023/02/18 03:41:40;;;;;;;7.03;4.85;;;17.50;55.80;;;;;;5113138;28;20173;-53
2023/02/18 03:44:06;;;;;;;5.10;4.32;;;17.50;55.80;;;;;;5113145;28;20291;-51
2023/02/18 03:46:32;;;;;;;6.30;5.00;;;17.50;55.80;;;;;;5113663;28;20177;-49
2023/02/18 03:48:58;;;;;;;7.25;4.97;;;17.50;55.80;;;;;;5113340;28;20602;-50
2023/02/18 03:51:23;;;;;;;7.15;4.90;;;17.50;55.80;;;;;;5114693;28;20169;-50
2023/02/18 03:53:49;;;;;;;5.97;4.85;;;17.50;55.80;;;;;;5113459;28;20612;-52
2023/02/18 03:56:14;;;;;;;6.43;4.82;;;17.50;55.90;;;;;;5114261;28;20173;-50
2023/02/18 03:58:40;;;;;;;6.35;4.57;;;17.40;56.40;;;;;;5113845;28;20177;-53
2023/02/18 04:01:05;;;;;;;5.00;4.50;;;17.40;55.80;;;;;;5113459;28;20611;-54
2023/02/18 04:03:31;;;;;;;6.35;5.15;;;17.40;55.80;;;;;;5114172;28;20585;-53
2023/02/18 04:05:56;;;;;;;6.97;4.95;;;17.40;55.90;;;;;;5113547;28;20176;-54
2023/02/18 04:08:22;;;;;;;6.20;4.70;;;17.40;55.80;;;;;;5114079;28;20173;-50
2023/02/18 04:10:48;;;;;;;5.55;4.75;;;17.40;55.80;;;;;;5113766;28;20507;-48
2023/02/18 04:13:14;;;;;;;5.35;4.35;;;17.40;55.80;;;;;;5113175;28;20184;-50
2023/02/18 04:15:39;;;;;;;4.78;4.18;;;17.40;55.90;;;;;;5113756;28;20180;-53
2023/02/18 04:18:05;;;;;;;4.90;4.25;;;17.40;55.90;;;;;;5113515;28;20220;-54
2023/02/18 04:20:30;;;;;;;6.25;4.75;;;17.40;55.90;;;;;;5113190;28;20169;-54
2023/02/18 04:22:56;;;;;;;5.00;4.07;;;17.40;55.90;;;;;;5113421;28;20193;-49
2023/02/18 04:25:21;;;;;;;4.30;3.90;;;17.40;55.90;;;;;;5113625;28;20200;-52
2023/02/18 04:27:47;;;;;;;6.38;4.75;;;17.40;55.90;;;;;;5112571;28;20169;-48
2023/02/18 04:30:13;;;;;;;5.75;4.57;;;17.40;56.00;;;;;;5113791;28;20173;-50
2023/02/18 04:32:38;;;;;;;5.78;3.75;;;17.40;55.90;;;;;;5113312;28;20177;-47
2023/02/18 04:35:04;;;;;;;4.53;4.13;;;17.40;55.90;;;;;;5112684;28;20264;-52
2023/02/18 04:37:30;;;;;;;4.15;3.75;;;17.40;55.90;;;;;;5113459;28;20177;-53
2023/02/18 04:39:55;;;;;;;4.60;4.20;;;17.40;56.00;;;;;;5113325;28;20276;-49
2023/02/18 04:42:21;;;;;;;4.55;4.13;;;17.40;55.90;;;;;;5112695;28;20257;-51
2023/02/18 04:44:46;;;;;;;4.45;3.95;;;17.40;56.00;;;;;;5112978;28;20244;-51
2023/02/18 04:47:12;;;;;;;4.50;3.58;;;17.30;55.90;;;;;;5113460;28;20166;-54
2023/02/18 04:49:37;;;;;;;3.78;3.35;;;17.30;56.00;;;;;;5112237;28;20171;-51
2023/02/18 04:52:03;;;;;;;4.03;3.63;;;17.30;56.00;;;;;;5113348;28;20267;-52
2023/02/18 04:54:29;;;;;;;4.97;3.70;;;17.30;56.00;;;;;;5113266;28;20211;-51
2023/02/18 04:56:54;;;;;;;5.13;4.03;;;17.30;56.00;;;;;;5111994;28;20177;-52
2023/02/18 04:59:20;;;;;;;5.20;3.88;;;17.30;56.10;;;;;;5113098;28;20171;-51
2023/02/18 05:01:45;;;;;;;5.95;3.85;;;17.30;56.10;;;;;;5112605;28;20183;-52
2023/02/18 05:04:11;;;;;;;4.70;4.00;;;17.30;56.10;;;;;;5112118;28;20225;-54
2023/02/18 05:06:38;;;;;;;5.05;3.92;;;17.30;56.10;;;;;;5112799;28;20192;-53
2023/02/18 05:09:04;;;;;;;3.97;3.63;;;17.30;56.10;;;;;;5112683;28;20252;-53
2023/02/18 05:11:30;;;;;;;3.97;3.58;;;17.30;56.10;;;;;;5112149;28;20173;-54
2023/02/18 05:13:55;;;;;;;3.90;3.50;;;17.30;56.10;;;;;;5112727;28;20188;-53
2023/02/18 05:16:21;;;;;;;3.88;3.50;;;17.30;56.10;;;;;;5111839;28;20577;-54
2023/02/18 05:18:47;;;;;;;4.10;3.70;;;17.30;56.20;;;;;;5112433;28;20558;-49
2023/02/18 05:21:12;;;;;;;3.58;3.28;;;17.30;56.10;;;;;;5112949;28;20180;-53
2023/02/18 05:23:38;;;;;;;3.55;3.25;;;17.20;56.10;;;;;;5111580;28;20208;-52
2023/02/18 05:26:03;;;;;;;3.45;3.00;;;17.30;56.20;;;;;;5112683;28;20173;-52
2023/02/18 05:28:29;;;;;;;3.97;3.30;;;17.20;56.10;;;;;;5112659;28;20173;-52
2023/02/18 05:30:55;;;;;;;3.47;3.22;;;17.30;56.20;;;;;;5111678;28;20173;-54
2023/02/18 05:33:20;;;;;;;4.28;3.75;;;17.30;56.20;;;;;;5112796;28;20196;-54
2023/02/18 05:35:46;;;;;;;3.35;3.05;;;17.20;56.20;;;;;;5112420;28;20192;-53
2023/02/18 05:38:12;;;;;;;3.33;3.03;;;17.30;56.20;;;;;;5110566;28;20195;-51
2023/02/18 05:40:37;;;;;;;3.40;3.10;;;17.20;56.20;;;;;;5112183;28;20563;-50
2023/02/18 05:43:03;;;;;;;3.25;2.95;;;17.20;56.80;;;;;;5112725;28;20722;-53
2023/02/18 05:45:28;;;;;;;3.35;3.05;;;17.20;56.20;;;;;;5111867;28;20656;-53
2023/02/18 05:47:54;;;;;;;3.53;3.22;;;17.20;56.10;;;;;;5112241;28;20200;-52
2023/02/18 05:50:20;;;;;;;2.95;2.75;;;17.20;56.20;;;;;;5112405;28;20274;-49
2023/02/18 05:52:45;;;;;;;3.47;3.17;;;17.20;56.20;;;;;;5111421;28;20184;-49
2023/02/18 05:55:11;;;;;;;3.25;2.95;;;17.20;56.20;;;;;;5112330;28;20577;-52
2023/02/18 05:57:36;;;;;;;3.50;3.05;;;17.20;56.30;;;;;;5112266;28;20181;-54
2023/02/18 06:00:04;;;;;;;3.20;2.90;;;17.20;56.30;;;;;;5111915;28;20248;-52
2023/02/18 06:02:29;;;;;;;3.20;2.90;;;17.20;56.30;;;;;;5112449;28;20550;-52
2023/02/18 06:04:55;;;;;;;3.55;3.10;;;17.20;56.30;;;;;;5111963;28;20627;-52
2023/02/18 06:07:20;;;;;;;3.35;2.47;;;17.20;56.30;;;;;;5111592;28;20647;-52
2023/02/18 06:09:46;;;;;;;2.97;2.67;;;17.20;56.30;;;;;;5112064;28;20260;-48
2023/02/18 06:12:11;;;;;;;3.17;2.85;;;17.20;56.30;;;;;;5112282;28;20265;-52
2023/02/18 06:14:40;;;;;;;3.17;2.88;;;17.20;56.30;;;;;;5111456;28;20177;-53
2023/02/18 06:17:10;;;;;;;3.22;2.50;;;17.20;56.30;;;;;;5112153;28;20232;-52
2023/02/18 06:19:35;;;;;;;2.63;2.42;;;17.20;56.30;;;;;;5110016;28;20176;-53
2023/02/18 06:22:01;;;;;;;2.97;2.47;;;17.20;56.30;;;;;;5112279;28;20578;-54
2023/02/18 06:24:26;;;;;;;2.70;2.50;;;17.10;56.30;;;;;;5115620;28;20592;-51
2023/02/18 06:26:52;;;;;;;2.60;2.40;;;17.20;57.00;;;;;;5115213;28;20306;-52
2023/02/18 06:29:17;;;;;;;2.47;2.28;;;17.10;56.30;;;;;;5116166;28;20628;-51
2023/02/18 06:31:43;;;;;;;2.67;2.40;;;17.10;56.30;;;;;;5115722;28;20634;-49
2023/02/18 06:34:08;;;;;;;2.90;2.22;;;17.20;56.40;;;;;;5115288;28;20196;-48
2023/02/18 06:36:34;;;;;;;2.38;2.17;;;17.10;56.30;;;;;;5115694;28;20177;-52
2023/02/18 06:39:01;;;;;;;2.55;2.35;;;17.10;56.30;;;;;;5115689;28;20230;-50
2023/02/18 06:41:27;;;;;;;2.28;2.10;;;17.10;56.30;;;;;;5115196;28;20196;-52
2023/02/18 06:43:52;;;;;;;2.47;2.28;;;17.10;56.30;;;;;;5115542;28;20602;-50
2023/02/18 06:46:18;;;;;;;2.50;2.30;;;17.10;56.30;;;;;;5115575;28;20169;-54
2023/02/18 06:48:43;;;;;;;2.90;2.20;;;17.10;56.30;;;;;;5114756;28;20272;-52
2023/02/18 06:51:09;;;;;;;2.20;2.00;;;17.10;56.30;;;;;;5115611;28;20538;-49
2023/02/18 06:53:35;;;;;;;2.30;2.10;;;17.10;56.30;;;;;;5115153;28;20550;-48
2023/02/18 06:56:00;;;;;;;2.60;2.40;;;17.10;56.40;;;;;;5115008;28;20256;-49
2023/02/18 06:58:26;;;;;;;2.30;2.10;;;17.10;56.40;;;;;;5115601;28;20219;-51
2023/02/18 07:00:51;;;;;;;2.35;2.15;;;17.10;56.30;;;;;;5115178;28;20169;-50
2023/02/18 07:03:17;;;;;;;2.42;2.22;;;17.10;56.40;;;;;;5114567;28;20663;-51
2023/02/18 07:05:42;;;;;;;2.03;1.92;;;17.10;56.40;;;;;;5115003;28;20389;-52
2023/02/18 07:08:08;;;;;;;2.15;1.95;;;17.10;56.40;;;;;;5115330;28;20532;-53
2023/02/18 07:10:33;;;;;;;2.13;1.98;;;17.00;56.30;;;;;;5114367;28;20642;-52
2023/02/18 07:12:59;;;;;;;1.98;1.88;;;17.00;56.30;;;;;;5115072;28;20630;-54
2023/02/18 07:15:26;;;;;;;1.95;1.85;;;17.00;56.30;;;;;;5115108;28;20177;-50
2023/02/18 07:17:52;;;;;;;2.00;1.83;;;17.00;56.30;;;;;;5113677;28;20263;-50
2023/02/18 07:20:19;;;;;;;2.13;2.00;;;17.10;56.30;;;;;;5114827;28;20208;-52
2023/02/18 07:22:44;;;;;;;1.92;1.75;;;17.00;56.40;;;;;;5113924;28;20272;-50
2023/02/18 07:25:10;;;;;;;2.20;2.00;;;17.00;56.30;;;;;;5115353;28;20695;-48
2023/02/18 07:27:35;;;;;;;2.15;2.00;;;17.00;56.30;;;;;;5114722;28;20165;-47
2023/02/18 07:30:01;;;;;;;2.10;1.95;;;17.00;56.30;;;;;;5114086;28;20173;-49
2023/02/18 07:32:26;;;;;;;1.65;1.55;;;17.00;56.40;;;;;;5114680;28;20245;-49
2023/02/18 07:34:52;;;;;;;1.92;1.73;;;17.00;56.40;;;;;;5113564;28;20246;-50
2023/02/18 07:37:18;;;;;;;1.73;1.63;;;17.00;56.40;;;;;;5113674;28;20590;-48
2023/02/18 07:39:44;;;;;;;2.17;1.90;;;17.00;56.40;;;;;;5114071;28;20171;-51
2023/02/18 07:42:10;;;;;;;1.83;1.73;;;17.00;56.40;;;;;;5114441;28;20264;-51
2023/02/18 07:44:36;;;;;;;2.35;2.15;;;17.00;56.40;;;;;;5113288;28;20212;-48
2023/02/18 07:47:02;;;;;;;1.90;1.75;;;17.00;56.40;;;;;;5114332;28;20284;-49
2023/02/18 07:49:28;;;;;;;1.67;1.58;;;17.00;56.40;;;;;;5114178;28;20177;-50
2023/02/18 07:51:53;;;;;;;2.00;1.75;;;17.00;56.40;;;;;;5113246;28;20315;-52
2023/02/18 07:54:19;;;;;;;1.70;1.60;;;17.00;56.40;;;;;;5114410;28;20196;-51
2023/02/18 07:56:44;;;;;;;1.95;1.85;;;17.00;56.40;;;;;;5113635;28;20260;-52
2023/02/18 07:59:10;;;;;;;1.98;1.88;;;17.00;56.40;;;;;;5113250;28;20184;-50
2023/02/18 08:01:36;;;;;;;1.75;1.65;;;16.90;56.40;;;;;;5113646;28;20169;-49
2023/02/18 08:04:01;;;;;;;2.08;1.88;;;16.90;56.40;;;;;;5113721;28;20274;-52
2023/02/18 08:06:31;;;;;;;1.67;1.58;;;16.90;56.40;;;;;;5113074;28;20169;-49
2023/02/18 08:08:57;;;;;;;2.05;1.92;;;16.90;56.40;;;;;;5113866;28;20183;-53
2023/02/18 08:11:23;;;;;;;1.67;1.58;;;16.90;56.40;;;;;;5113904;28;20170;-50
2023/02/18 08:13:48;;;;;;;2.30;1.80;;;16.90;56.40;;;;;;5112842;28;20252;-52
2023/02/18 08:16:15;;;;;;;2.58;1.73;;;16.90;56.40;;;;;;5113597;28;20622;-51
2023/02/18 08:18:40;;;;;;;1.75;1.65;;;16.90;56.40;;;;;;5113500;28;20176;-52
2023/02/18 08:21:06;;;;;;;2.15;1.40;;;16.90;56.40;;;;;;5112562;28;20631;-49
2023/02/18 08:23:31;;;;;;;1.88;1.55;;;16.90;56.40;;;;;;5113176;28;20212;-48
2023/02/18 08:25:57;;;;;;;1.73;1.55;;;16.90;56.40;;;;;;5113586;28;20268;-48
2023/02/18 08:28:23;;;;;;;1.83;1.70;;;16.90;56.40;;;;;;5112849;28;20591;-51
2023/02/18 08:30:49;;;;;;;1.88;1.70;;;16.90;56.50;;;;;;5112954;28;20687;-52
2023/02/18 08:33:15;;;;;;;2.15;1.65;;;16.90;56.50;;;;;;5112375;28;20685;-60
2023/02/18 08:35:41;;;;;;;1.60;1.48;;;16.90;57.20;;;;;;5112841;28;20173;-68
2023/02/18 08:38:06;;;;;;;2.60;1.60;;;16.90;56.60;;;;;;5113316;28;20508;-67
2023/02/18 08:40:32;;;;;;;3.05;1.65;;;16.90;56.60;;;;;;5112249;28;20176;-62
2023/02/18 08:42:57;;;;;;;3.65;1.75;;;16.90;57.00;;;;;;5113530;28;20180;-63
2023/02/18 08:45:23;;;;;;;2.33;1.65;;;17.00;56.90;;;;;;5113094;28;20173;-63
2023/02/18 08:47:48;;;;;;;4.72;1.67;;;17.00;57.30;;;;;;5111202;28;20205;-64
2023/02/18 08:50:14;;;;;;;3.33;1.73;;;17.00;56.70;;;;;;5113009;28;20398;-63
2023/02/18 08:52:40;;;;;;;3.40;1.58;;;17.00;56.60;;;;;;5112749;28;20200;-61
2023/02/18 08:55:05;;;;;;;3.28;1.90;;;17.00;57.30;;;;;;5112370;28;20627;-62
2023/02/18 08:57:31;;;;;;;4.00;1.60;;;17.00;56.90;;;;;;5113124;28;20185;-67
2023/02/18 08:59:57;;;;;;;5.03;1.50;;;17.10;57.10;;;;;;5112899;28;20678;-62
2023/02/18 09:02:22;;;;;;;4.07;1.92;;;17.10;56.80;;;;;;5112130;28;20170;-63
2023/02/18 09:04:48;;;;;;;3.53;1.85;;;17.10;56.90;;;;;;5112389;28;20209;-63
2023/02/18 09:07:14;;;;;;;3.80;1.90;;;17.10;56.80;;;;;;5112806;28;20251;-62
2023/02/18 09:09:40;;;;;;;3.58;1.90;;;17.20;56.60;;;;;;5111969;28;20267;-62
2023/02/18 09:12:06;;;;;;;1.75;1.35;;;17.10;56.60;;;;;;5112882;28;20234;-63
2023/02/18 09:14:32;;;;;;;4.40;1.88;;;17.10;56.60;;;;;;5112611;28;20173;-64
2023/02/18 09:16:57;;;;;;;2.67;1.45;;;17.10;56.50;;;;;;5111559;28;20316;-62
2023/02/18 09:19:23;;;;;;;2.58;1.63;;;17.20;56.60;;;;;;5112526;28;20181;-62
2023/02/18 09:21:49;;;;;;;3.83;1.80;;;17.20;56.60;;;;;;5111632;28;20169;-63
2023/02/18 09:24:14;;;;;;;3.78;1.75;;;17.20;56.60;;;;;;5111599;28;20263;-62
2023/02/18 09:26:40;;;;;;;2.63;1.40;;;17.20;56.60;;;;;;5112399;28;20176;-63
2023/02/18 09:29:05;;;;;;;3.30;1.88;;;17.20;56.60;;;;;;5112687;28;20264;-63
2023/02/18 09:31:31;;;;;;;2.83;1.58;;;17.20;56.70;;;;;;5112010;28;20655;-64
2023/02/18 09:34:01;;;;;;;3.30;2.10;;;17.20;56.70;;;;;;5112398;28;20177;-64
2023/02/18 09:36:26;;;;;;;3.92;1.73;;;17.10;56.80;;;;;;5111820;28;20184;-63
2023/02/18 09:38:52;;;;;;;1.70;1.33;;;17.10;56.70;;;;;;5112548;28;20181;-64
2023/02/18 09:41:39;;;;;;;3.78;1.83;;;17.20;57.30;;;;;;5112555;28;20189;-63
2023/02/18 09:44:24;;;;;;;3.95;1.35;;;17.20;57.20;;;;;;5111691;28;20689;-62
2023/02/18 09:46:59;;;;;;;2.70;1.40;;;17.20;57.10;;;;;;5096214;28;20177;-62
2023/02/18 09:49:26;;;;;;;3.83;1.73;;;17.20;57.10;;;;;;5112459;28;20271;-62
2023/02/18 09:51:53;;;;;;;2.95;1.55;;;17.30;57.20;;;;;;5111269;28;20694;-64
2023/02/18 09:54:18;;;;;;;2.08;1.60;;;17.40;57.30;;;;;;5112367;28;20202;-61
2023/02/18 09:56:44;;;;;;;4.55;1.77;;;17.40;57.20;;;;;;5111921;28;20264;-62
2023/02/18 09:59:18;;;;;;;5.85;1.40;;;17.60;57.20;;;;;;5115114;28;20631;-63
2023/02/18 10:01:44;;;;;;;4.45;1.80;;;17.80;57.00;;;;;;5114988;28;20176;-63
2023/02/18 10:04:15;;;;;;;3.78;1.10;;;18.00;56.60;;;;;;5114854;28;20212;-62
2023/02/18 10:06:41;;;;;;;3.78;1.30;;;18.30;56.20;;;;;;5114768;28;20169;-61
2023/02/18 10:09:27;;;;;;;3.35;1.30;;;18.50;55.80;;;;;;5114514;28;20165;-60
2023/02/18 10:11:57;;;;;;;3.42;1.60;;;18.70;55.40;;;;;;5112287;28;20546;-62
2023/02/18 10:14:22;;;;;;;1.85;1.55;;;18.90;55.10;;;;;;5113169;28;20169;-62
2023/02/18 10:16:48;;;;;;;4.38;1.55;;;18.90;54.80;;;;;;5114411;28;20342;-62
2023/02/18 10:19:32;;;;;;;2.75;1.02;;;19.10;54.70;;;;;;5114108;28;20165;-62
2023/02/18 10:21:57;;;;;;;3.47;1.27;;;19.20;54.60;;;;;;5114540;28;20524;-62
2023/02/18 10:24:43;;;;;;;2.42;1.55;;;19.30;54.50;;;;;;5114879;28;20208;-62
2023/02/18 10:27:08;;;;;;;1.95;1.15;;;19.30;54.20;;;;;;5114128;28;20173;-62
2023/02/18 10:29:34;;;;;;;3.13;1.48;;;19.40;54.10;;;;;;5115658;28;20169;-62
2023/02/18 10:32:08;;;;;;;4.53;1.40;;;19.40;54.00;;;;;;5115977;28;20173;-63
2023/02/18 10:34:49;;;;;;;1.38;1.02;;;19.50;54.00;;;;;;5113644;28;20251;-63
2023/02/18 10:37:19;;;;;;;3.50;1.10;;;19.50;54.00;;;;;;5116055;28;20188;-63
2023/02/18 10:40:04;;;;;;;2.70;1.20;;;19.40;54.00;;;;;;5113823;28;20185;-66
2023/02/18 10:42:41;;;;;;;2.05;1.10;;;19.40;54.10;;;;;;5115676;28;20173;-63
2023/02/18 10:45:44;;;;;;;2.08;1.17;;;19.50;54.10;;;;;;5114549;28;20219;-62
2023/02/18 10:48:31;;;;;;;4.15;1.38;;;19.40;54.20;;;;;;5108023;28;20276;-61
2023/02/18 10:50:58;;;;;;;4.35;1.40;;;19.40;54.20;;;;;;5115655;28;20176;-61
2023/02/18 10:53:38;;;;;;;2.75;1.40;;;19.30;54.30;;;;;;5114135;28;20254;-62
2023/02/18 10:56:05;;;;;;;3.28;1.58;;;19.40;54.30;;;;;;5113391;28;20521;-63
2023/02/18 10:58:35;;;;;;;3.08;1.30;;;19.40;54.30;;;;;;5115399;28;20570;-64
2023/02/18 11:01:12;;;;;;;2.50;1.40;;;19.40;54.50;;;;;;5114599;28;20500;-63
2023/02/18 11:03:40;;;;;;;2.00;1.27;;;19.40;54.50;;;;;;5113613;28;20209;-62
2023/02/18 11:06:06;;;;;;;1.38;1.00;;;19.40;54.40;;;;;;5115175;28;20180;-62
2023/02/18 11:08:38;;;;;;;2.70;1.10;;;19.50;54.40;;;;;;5113079;28;20173;-61
2023/02/18 11:11:15;;;;;;;2.45;1.55;;;19.50;54.40;;;;;;5113600;28;20294;-62
2023/02/18 11:13:40;;;;;;;2.88;1.42;;;19.50;54.40;;;;;;5113844;28;20173;-62
2023/02/18 11:16:08;;;;;;;1.90;1.05;;;19.50;54.40;;;;;;5114211;28;20529;-63
2023/02/18 11:18:40;;;;;;;2.75;1.15;;;19.50;54.40;;;;;;5115013;28;20264;-63
2023/02/18 11:21:30;;;;;;;4.85;1.52;;;19.50;54.30;;;;;;5115354;28;20188;-63
2023/02/18 11:23:55;;;;;;;3.40;1.35;;;19.70;54.20;;;;;;5113813;28;20567;-62
2023/02/18 11:26:29;;;;;;;3.03;1.30;;;19.60;54.20;;;;;;5114752;28;20635;-61
2023/02/18 11:29:24;;;;;;;2.88;1.33;;;19.60;54.30;;;;;;5112757;28;20184;-62
2023/02/18 11:31:51;;;;;;;4.43;1.05;;;19.60;54.20;;;;;;5105102;28;20318;-62
2023/02/18 11:34:26;;;;;;;3.63;1.20;;;19.70;54.20;;;;;;5113293;28;20181;-62
2023/02/18 11:36:51;;;;;;;3.88;1.23;;;19.70;54.10;;;;;;5113726;28;21203;-62
2023/02/18 11:39:23;;;;;;;2.95;1.20;;;19.70;54.10;;;;;;5114813;28;20639;-62
2023/02/18 11:42:02;;;;;;;3.45;1.30;;;19.70;54.10;;;;;;5113025;28;20176;-62
2023/02/18 11:44:36;;;;;;;2.28;1.15;;;19.70;54.00;;;;;;5113596;28;20216;-62
2023/02/18 11:47:03;;;;;;;4.13;1.17;;;19.70;54.10;;;;;;5113145;28;20177;-61
2023/02/18 11:49:30;;;;;;;3.90;1.13;;;19.70;54.10;;;;;;5114207;28;20181;-61
2023/02/18 11:52:22;;;;;;;4.35;1.40;;;19.70;54.10;;;;;;5113292;28;20252;-62
2023/02/18 11:55:15;;;;;;;3.72;1.38;;;19.70;54.10;;;;;;5113579;28;20196;-61
2023/02/18 11:57:54;;;;;;;3.97;1.15;;;19.70;54.10;;;;;;5112987;28;20177;-62
2023/02/18 12:00:30;;;;;;;2.30;1.40;;;19.70;54.10;;;;;;5112991;28;20177;-62
2023/02/18 12:02:56;;;;;;;3.50;1.33;;;19.70;54.10;;;;;;5112606;28;20238;-62
2023/02/18 12:05:23;;;;;;;4.13;1.67;;;19.70;54.10;;;;;;5112228;28;20636;-62
2023/02/18 12:08:00;;;;;;;2.78;1.10;;;19.70;54.20;;;;;;5113694;28;20173;-61
2023/02/18 12:10:29;;;;;;;2.20;1.17;;;19.70;54.10;;;;;;5112404;28;20588;-62
2023/02/18 12:13:02;;;;;;;3.00;1.20;;;19.60;54.10;;;;;;5111706;28;20183;-62
2023/02/18 12:15:37;;;;;;;3.20;1.10;;;19.70;54.20;;;;;;5112566;28;20226;-63
2023/02/18 12:18:15;;;;;;;2.38;1.25;;;19.60;54.30;;;;;;5112408;28;20596;-62
2023/02/18 12:21:05;;;;;;;2.35;0.93;;;19.60;54.40;;;;;;5111993;28;20265;-62
2023/02/18 12:23:55;;;;;;;1.98;1.20;;;19.50;54.40;;;;;;5113558;28;20205;-62
2023/02/18 12:26:34;;;;;;;2.75;1.40;;;19.50;54.50;;;;;;5111521;28;20288;-63
2023/02/18 12:29:16;;;;;;;1.70;1.17;;;19.50;54.50;;;;;;5112228;28;20707;-66
2023/02/18 12:32:03;;;;;;;3.00;1.30;;;19.50;54.60;;;;;;5111980;28;20180;-64
2023/02/18 12:34:42;;;;;;;3.63;1.30;;;19.50;54.60;;;;;;5111382;28;20169;-67
2023/02/18 12:37:39;;;;;;;3.00;1.33;;;19.40;54.70;;;;;;5111901;28;20610;-63
2023/02/18 12:40:37;;;;;;;3.40;1.25;;;19.40;54.80;;;;;;5113019;28;20180;-63
2023/02/18 12:43:25;;;;;;;3.33;1.05;;;19.40;54.80;;;;;;5112285;28;20169;-63
2023/02/18 12:45:56;;;;;;;3.63;1.35;;;19.50;54.80;;;;;;5111728;28;20595;-62
2023/02/18 12:48:25;;;;;;;5.05;1.50;;;19.50;54.80;;;;;;5112486;28;20531;-64
2023/02/18 12:51:01;;;;;;;4.32;1.23;;;19.50;54.70;;;;;;5112866;28;20214;-61
2023/02/18 12:53:46;;;;;;;2.05;0.90;;;19.50;54.70;;;;;;5112399;28;20186;-61
2023/02/18 12:56:25;;;;;;;3.17;1.27;;;19.50;54.80;;;;;;5111889;28;20181;-63
2023/02/18 12:59:12;;;;;;;3.25;1.50;;;19.40;54.80;;;;;;5111311;28;20661;-65
2023/02/18 13:01:53;;;;;;;2.85;1.15;;;19.40;54.80;;;;;;5110647;28;20199;-62